Weather at Marudi Airport

Public forecast

Using degrees Celsius for public forecast. Weather courtesy of forecast.io.

Closest aviation weather report (METAR) to Marudi Airport

Closest report is Miri Airport, 22.3 nm (41.3 km) WNW.

2022/11/30 09:00 (retrieved 36 minutes ago)

WBGR 300900Z 30006KT 250V360 9999 FEW015CB SCT016 30/24 Q1005

Closest aviation forecast (TAF) to Marudi Airport

Closest forecast is Miri Airport, 22.3 nm (41.3 km) WNW.

2022/11/30 06:00 (retrieved 4 hours ago)

TAF WBGR 300500Z 3006/0106 27005KT 9999 SCT016 TEMPO 3008/3012 5000 TSRA FEW015CB